createdAt,value
2023-01-12T00:01:54.275Z,101189.47
2023-01-12T00:04:22.329Z,101196.94
2023-01-12T00:06:50.355Z,101208.97
2023-01-12T00:09:18.295Z,101209.75
2023-01-12T00:11:47.634Z,101195.16
2023-01-12T00:14:16.330Z,101227.44
2023-01-12T00:16:44.564Z,101233.31
2023-01-12T00:19:15.589Z,101251.97
2023-01-12T00:21:56.392Z,101260.34
2023-01-12T00:24:26.406Z,101272.22
2023-01-12T00:26:57.107Z,101267.06
2023-01-12T00:29:25.980Z,101263.66
2023-01-12T00:31:54.682Z,101261.97
2023-01-12T00:34:23.072Z,101254.91
2023-01-12T00:36:51.595Z,101251.34
2023-01-12T00:39:20.055Z,101247.09
2023-01-12T00:42:05.452Z,101238.78
2023-01-12T00:44:52.385Z,101241.59
2023-01-12T00:47:20.503Z,101233.28
2023-01-12T00:49:48.494Z,101234.06
2023-01-12T00:52:29.888Z,101243.50
2023-01-12T00:54:58.643Z,101253.00
2023-01-12T00:57:26.856Z,101251.31
2023-01-12T00:59:58.224Z,101239.47
2023-01-12T01:02:27.042Z,101208.03
2023-01-12T01:04:55.027Z,101231.81
2023-01-12T01:07:23.151Z,101233.31
2023-01-12T01:09:51.518Z,101235.00
2023-01-12T01:12:19.700Z,101240.91
2023-01-12T01:14:48.517Z,101241.75
2023-01-12T01:17:18.092Z,101231.41
2023-01-12T01:19:46.351Z,101235.75
2023-01-12T01:22:14.268Z,101225.00
2023-01-12T01:24:42.291Z,101213.13
2023-01-12T01:27:10.328Z,101208.16
2023-01-12T01:29:38.312Z,101202.19
2023-01-12T01:32:06.685Z,101204.00
2023-01-12T01:34:36.445Z,101194.59
2023-01-12T01:37:04.737Z,101191.19
2023-01-12T01:39:32.651Z,101192.78
2023-01-12T01:42:01.208Z,101183.44
2023-01-12T01:44:54.320Z,101188.41
2023-01-12T01:47:31.356Z,101185.03
2023-01-12T01:50:04.907Z,101188.44
2023-01-12T01:52:37.815Z,101202.84
2023-01-12T01:55:10.028Z,101198.53
2023-01-12T01:57:43.244Z,101187.38
2023-01-12T02:00:13.696Z,101184.00
2023-01-12T02:02:43.868Z,101190.78
2023-01-12T02:05:15.006Z,101195.88
2023-01-12T02:07:43.314Z,101173.81
2023-01-12T02:10:12.530Z,101173.09
2023-01-12T02:12:58.147Z,101176.63
2023-01-12T02:15:47.190Z,101198.75
2023-01-12T02:18:25.915Z,101192.81
2023-01-12T02:21:08.381Z,101195.28
2023-01-12T02:24:09.749Z,101202.94
2023-01-12T02:27:13.686Z,101201.22
2023-01-12T02:30:14.739Z,101197.94
2023-01-12T02:32:55.581Z,101199.50
2023-01-12T02:35:28.443Z,101208.91
2023-01-12T02:38:04.939Z,101213.34
2023-01-12T02:40:37.800Z,101202.19
2023-01-12T02:43:11.606Z,101202.06
2023-01-12T02:45:48.897Z,101199.53
2023-01-12T02:48:24.219Z,101207.84
2023-01-12T02:50:57.017Z,101192.41
2023-01-12T02:53:31.201Z,101182.28
2023-01-12T02:56:03.224Z,101184.94
2023-01-12T02:58:34.154Z,101185.03
2023-01-12T03:01:03.823Z,101185.97
2023-01-12T03:03:36.177Z,101174.16
2023-01-12T03:06:07.091Z,101163.97
2023-01-12T03:08:38.877Z,101182.53
2023-01-12T03:11:13.459Z,101175.94
2023-01-12T03:13:46.636Z,101175.84
2023-01-12T03:16:18.933Z,101183.44
2023-01-12T03:18:54.773Z,101175.78
2023-01-12T03:21:30.799Z,101189.47
2023-01-12T03:24:05.115Z,101191.03
2023-01-12T03:26:33.960Z,101183.41
2023-01-12T03:29:08.886Z,101175.66
2023-01-12T03:31:37.815Z,101179.19
2023-01-12T03:34:07.141Z,101170.72
2023-01-12T03:36:44.512Z,101168.88
2023-01-12T03:39:19.401Z,101174.91
2023-01-12T03:41:55.886Z,101182.66
2023-01-12T03:44:32.570Z,101192.81
2023-01-12T03:47:06.420Z,101192.88
2023-01-12T03:49:40.943Z,101178.34
2023-01-12T03:52:11.864Z,101189.38
2023-01-12T03:54:41.791Z,101179.03
2023-01-12T03:57:12.232Z,101187.56
2023-01-12T03:59:40.385Z,101183.25
2023-01-12T04:02:08.326Z,101191.00
2023-01-12T04:04:37.647Z,101189.19
2023-01-12T04:07:05.587Z,101187.50
2023-01-12T04:09:33.548Z,101194.31
2023-01-12T04:12:13.588Z,101197.69
2023-01-12T04:14:43.223Z,101189.00
2023-01-12T04:17:13.343Z,101182.03
2023-01-12T04:19:43.155Z,101150.72
2023-01-12T04:22:32.616Z,101168.63
2023-01-12T04:25:00.561Z,101187.38
2023-01-12T04:27:28.526Z,101190.78
2023-01-12T04:29:56.533Z,101189.91
2023-01-12T04:32:24.493Z,101195.16
2023-01-12T04:34:53.821Z,101195.81
2023-01-12T04:37:21.757Z,101196.50
2023-01-12T04:39:49.707Z,101195.59
2023-01-12T04:42:35.222Z,101197.25
2023-01-12T04:45:03.203Z,101194.50
2023-01-12T04:47:31.122Z,101190.19
2023-01-12T04:50:00.412Z,101187.63
2023-01-12T04:52:28.389Z,101192.13
2023-01-12T04:54:56.957Z,101197.88
2023-01-12T04:57:24.978Z,101186.75
2023-01-12T04:59:52.954Z,101189.31
2023-01-12T05:02:21.175Z,101193.50
2023-01-12T05:04:49.484Z,101198.44
2023-01-12T05:07:21.057Z,101201.84
2023-01-12T05:10:06.422Z,101207.63
2023-01-12T05:12:34.366Z,101216.09
2023-01-12T05:15:03.694Z,101208.56
2023-01-12T05:17:32.934Z,101208.53
2023-01-12T05:20:01.188Z,101211.09
2023-01-12T05:22:32.692Z,101213.53
2023-01-12T05:25:00.597Z,101208.44
2023-01-12T05:27:28.522Z,101202.41
2023-01-12T05:29:57.283Z,101203.00
2023-01-12T05:32:25.196Z,101212.50
2023-01-12T05:34:53.391Z,101215.38
2023-01-12T05:37:21.355Z,101212.56
2023-01-12T05:39:50.675Z,101215.88
2023-01-12T05:42:35.918Z,101205.66
2023-01-12T05:45:03.834Z,101214.03
2023-01-12T05:47:31.761Z,101215.75
2023-01-12T05:49:59.674Z,101215.59
2023-01-12T05:52:27.602Z,101219.78
2023-01-12T05:54:56.929Z,101219.66
2023-01-12T05:57:24.907Z,101224.00
2023-01-12T05:59:52.888Z,101229.03
2023-01-12T06:02:21.733Z,101234.84
2023-01-12T06:04:49.955Z,101231.72
2023-01-12T06:07:18.032Z,101234.19
2023-01-12T06:09:45.994Z,101245.22
2023-01-12T06:12:32.916Z,101239.88
2023-01-12T06:15:00.818Z,101233.72
2023-01-12T06:17:28.739Z,101226.75
2023-01-12T06:19:56.670Z,101233.53
2023-01-12T06:22:24.979Z,101229.94
2023-01-12T06:24:53.901Z,101228.22
2023-01-12T06:27:23.255Z,101229.00
2023-01-12T06:29:51.183Z,101221.75
2023-01-12T06:32:19.128Z,101232.59
2023-01-12T06:34:47.051Z,101232.38
2023-01-12T06:37:14.963Z,101236.25
2023-01-12T06:39:42.875Z,101223.25
2023-01-12T06:42:29.499Z,101219.66
2023-01-12T06:44:59.294Z,101229.69
2023-01-12T06:47:28.430Z,101229.69
2023-01-12T06:49:56.390Z,101233.19
2023-01-12T06:52:27.059Z,101239.81
2023-01-12T06:54:55.177Z,101239.75
2023-01-12T06:57:23.099Z,101228.72
2023-01-12T06:59:51.065Z,101235.66
2023-01-12T07:02:20.337Z,101246.59
2023-01-12T07:04:48.350Z,101253.56
2023-01-12T07:07:16.621Z,101260.41
2023-01-12T07:09:44.542Z,101257.13
2023-01-12T07:12:12.491Z,101253.63
2023-01-12T07:14:40.429Z,101252.72
2023-01-12T07:17:08.359Z,101262.06
2023-01-12T07:19:37.652Z,101260.22
2023-01-12T07:22:05.830Z,101272.13
2023-01-12T07:24:33.764Z,101268.72
2023-01-12T07:27:01.724Z,101260.34
2023-01-12T07:29:29.701Z,101270.59
2023-01-12T07:31:57.646Z,101263.88
2023-01-12T07:34:25.602Z,101277.47
2023-01-12T07:36:55.108Z,101273.19
2023-01-12T07:39:23.010Z,101262.06
2023-01-12T07:42:08.372Z,101266.25
2023-01-12T07:44:36.300Z,101272.16
2023-01-12T07:47:04.230Z,101271.19
2023-01-12T07:49:32.151Z,101269.41
2023-01-12T07:52:01.463Z,101273.59
2023-01-12T07:54:29.369Z,101274.41
2023-01-12T07:56:58.030Z,101270.28
2023-01-12T07:59:27.636Z,101275.31
2023-01-12T08:01:55.638Z,101288.03
2023-01-12T08:04:24.002Z,101293.16
2023-01-12T08:06:51.923Z,101299.34
2023-01-12T08:09:21.222Z,101296.13
2023-01-12T08:11:49.142Z,101290.88
2023-01-12T08:14:25.398Z,101296.03
2023-01-12T08:16:54.517Z,101301.22
2023-01-12T08:19:25.381Z,101304.53
2023-01-12T08:21:58.751Z,101297.63
2023-01-12T08:24:32.515Z,101301.94
2023-01-12T08:27:02.959Z,101298.41
2023-01-12T08:29:36.283Z,101299.41
2023-01-12T08:34:46.675Z,101300.91
2023-01-12T08:37:17.407Z,101305.19
2023-01-12T08:39:48.400Z,101300.41
2023-01-12T08:42:16.371Z,101288.44
2023-01-12T08:44:45.262Z,101312.88
2023-01-12T08:47:19.173Z,101309.59
2023-01-12T08:49:47.341Z,101302.59
2023-01-12T08:52:17.399Z,101306.00
2023-01-12T08:54:45.604Z,101302.66
2023-01-12T08:57:16.367Z,101303.13
2023-01-12T08:59:44.547Z,101302.13
2023-01-12T09:02:13.241Z,101299.41
2023-01-12T09:04:41.630Z,101298.56
2023-01-12T09:07:09.885Z,101299.53
2023-01-12T09:09:37.968Z,101294.47
2023-01-12T09:12:06.950Z,101305.03
2023-01-12T09:14:39.033Z,101300.72
2023-01-12T09:17:07.752Z,101305.66
2023-01-12T09:19:35.758Z,101303.19
2023-01-12T09:22:03.693Z,101300.63
2023-01-12T09:24:31.641Z,101305.66
2023-01-12T09:27:00.017Z,101308.13
2023-01-12T09:29:27.954Z,101302.97
2023-01-12T09:31:57.414Z,101307.31
2023-01-12T09:34:25.609Z,101304.81
2023-01-12T09:36:56.228Z,101310.81
2023-01-12T09:39:28.355Z,101301.38
2023-01-12T09:42:15.202Z,101308.09
2023-01-12T09:45:02.662Z,101302.84
2023-01-12T09:47:37.245Z,101282.28
2023-01-12T09:50:10.677Z,101300.00
2023-01-12T09:52:43.479Z,101306.78
2023-01-12T09:55:16.064Z,101304.16
2023-01-12T09:58:07.766Z,101296.31
2023-01-12T10:00:35.743Z,101299.78
2023-01-12T10:03:16.911Z,101288.59
2023-01-12T10:05:48.934Z,101286.84
2023-01-12T10:08:19.871Z,101275.00
2023-01-12T10:11:01.233Z,101281.91
2023-01-12T10:13:43.836Z,101289.56
2023-01-12T10:16:18.050Z,101284.50
2023-01-12T10:18:50.096Z,101280.94
2023-01-12T10:21:18.041Z,101281.81
2023-01-12T10:23:46.027Z,101285.13
2023-01-12T10:26:23.236Z,101277.31
2023-01-12T10:28:54.012Z,101272.81
2023-01-12T10:31:24.576Z,101264.19
2023-01-12T10:34:10.226Z,101256.41
2023-01-12T10:36:44.174Z,101258.81
2023-01-12T10:39:30.460Z,101251.84
2023-01-12T10:42:43.523Z,101256.16
2023-01-12T10:45:18.378Z,101255.13
2023-01-12T10:47:48.005Z,101251.00
2023-01-12T10:50:27.485Z,101252.63
2023-01-12T10:53:01.569Z,101246.59
2023-01-12T10:55:33.731Z,101253.22
2023-01-12T10:58:02.469Z,101245.47
2023-01-12T11:00:33.154Z,101242.88
2023-01-12T11:03:01.273Z,101239.34
2023-01-12T11:05:38.706Z,101237.13
2023-01-12T11:08:23.722Z,101239.16
2023-01-12T11:10:51.755Z,101219.53
2023-01-12T11:13:27.768Z,101233.69
2023-01-12T11:16:06.657Z,101241.31
2023-01-12T11:18:41.146Z,101232.69
2023-01-12T11:21:13.866Z,101236.66
2023-01-12T11:23:48.761Z,101243.47
2023-01-12T11:26:20.596Z,101235.69
2023-01-12T11:28:51.994Z,101232.22
2023-01-12T11:31:23.848Z,101236.47
2023-01-12T11:33:56.305Z,101238.06
2023-01-12T11:36:30.165Z,101232.38
2023-01-12T11:39:04.295Z,101236.03
2023-01-12T11:41:38.617Z,101233.69
2023-01-12T11:44:11.820Z,101235.41
2023-01-12T11:46:46.646Z,101242.22
2023-01-12T11:49:20.924Z,101239.50
2023-01-12T11:51:51.981Z,101231.81
2023-01-12T11:54:20.536Z,101232.81
2023-01-12T11:57:11.411Z,101197.19
2023-01-12T11:59:54.275Z,101226.81
2023-01-12T12:02:37.840Z,101228.78
2023-01-12T12:05:17.981Z,101219.41
2023-01-12T12:08:04.252Z,101225.47
2023-01-12T12:10:37.860Z,101227.44
2023-01-12T12:13:23.169Z,101227.47
2023-01-12T12:16:01.369Z,101234.44
2023-01-12T12:18:43.558Z,101229.34
2023-01-12T12:21:24.721Z,101227.69
2023-01-12T12:24:04.156Z,101228.56
2023-01-12T12:26:36.395Z,101229.41
2023-01-12T12:29:27.640Z,101231.91
2023-01-12T12:32:07.760Z,101213.91
2023-01-12T12:35:12.092Z,101219.81
2023-01-12T12:37:50.535Z,101218.91
2023-01-12T12:40:55.320Z,101221.75
2023-01-12T12:43:47.999Z,101210.97
2023-01-12T12:46:23.946Z,101216.94
2023-01-12T12:48:59.970Z,101207.50
2023-01-12T12:51:29.099Z,101218.31
2023-01-12T12:53:57.396Z,101216.47
2023-01-12T12:56:29.826Z,101208.78
2023-01-12T12:58:59.666Z,101222.28
2023-01-12T13:02:00.332Z,101225.50
2023-01-12T13:05:03.103Z,101234.00
2023-01-12T13:07:37.073Z,101231.28
2023-01-12T13:10:26.761Z,101227.72
2023-01-12T13:13:02.446Z,101233.75
2023-01-12T13:15:36.905Z,101233.59
2023-01-12T13:18:07.204Z,101235.16
2023-01-12T13:20:53.645Z,101232.56
2023-01-12T13:23:44.636Z,101231.63
2023-01-12T13:26:43.352Z,101221.50
2023-01-12T13:29:47.930Z,101230.94
2023-01-12T13:32:50.732Z,101229.13
2023-01-12T13:35:55.769Z,101228.34
2023-01-12T13:38:44.800Z,101219.03
2023-01-12T13:41:35.159Z,101236.94
2023-01-12T13:44:03.655Z,101234.31
2023-01-12T13:46:39.324Z,101236.00
2023-01-12T13:49:28.382Z,101231.78
2023-01-12T13:52:01.620Z,101240.31
2023-01-12T13:54:30.143Z,101238.59
2023-01-12T13:57:01.032Z,101238.75
2023-01-12T13:59:30.193Z,101233.69
2023-01-12T14:01:59.833Z,101240.56
2023-01-12T14:04:53.730Z,101229.56
2023-01-12T14:07:36.699Z,101238.88
2023-01-12T14:10:23.698Z,101247.50
2023-01-12T14:13:16.000Z,101240.75
2023-01-12T14:16:02.649Z,101245.94
2023-01-12T14:18:43.826Z,101228.25
2023-01-12T14:21:24.060Z,101243.47
2023-01-12T14:23:52.289Z,101255.47
2023-01-12T14:26:23.907Z,101253.81
2023-01-12T14:28:53.091Z,101241.94
2023-01-12T14:31:27.593Z,101220.13
2023-01-12T14:33:59.157Z,101250.53
2023-01-12T14:36:29.909Z,101256.53
2023-01-12T14:39:00.369Z,101254.00
2023-01-12T14:41:48.078Z,101235.41
2023-01-12T14:44:36.106Z,101254.88
2023-01-12T14:47:04.056Z,101254.03
2023-01-12T14:49:35.153Z,101254.91
2023-01-12T14:52:04.691Z,101242.28
2023-01-12T14:54:34.290Z,101251.66
2023-01-12T14:57:04.653Z,101260.16
2023-01-12T14:59:35.191Z,101262.00
2023-01-12T15:02:26.571Z,101262.00
2023-01-12T15:04:59.479Z,101267.19
2023-01-12T15:07:32.158Z,101268.88
2023-01-12T15:10:03.984Z,101263.66
2023-01-12T15:12:47.439Z,101272.25
2023-01-12T15:15:17.157Z,101274.00
2023-01-12T15:18:02.491Z,101267.19
2023-01-12T15:20:52.959Z,101244.25
2023-01-12T15:23:44.348Z,101274.78
2023-01-12T15:26:12.438Z,101264.50
2023-01-12T15:28:41.937Z,101265.34
2023-01-12T15:31:18.720Z,101267.03
2023-01-12T15:33:46.690Z,101267.88
2023-01-12T15:36:16.802Z,101266.28
2023-01-12T15:38:44.738Z,101260.28
2023-01-12T15:41:18.000Z,101276.44
2023-01-12T15:43:46.096Z,101277.22
2023-01-12T15:46:19.818Z,101267.06
2023-01-12T15:48:47.783Z,101281.59
2023-01-12T15:51:17.208Z,101284.16
2023-01-12T15:53:45.114Z,101287.59
2023-01-12T15:56:15.424Z,101276.53
2023-01-12T15:58:43.507Z,101285.78
2023-01-12T16:01:17.701Z,101284.06
2023-01-12T16:04:07.246Z,101290.03
2023-01-12T16:06:37.486Z,101288.34
2023-01-12T16:09:05.455Z,101293.53
2023-01-12T16:11:33.442Z,101297.94
2023-01-12T16:14:01.384Z,101295.25
2023-01-12T16:16:29.528Z,101296.97
2023-01-12T16:18:58.673Z,101293.53
2023-01-12T16:21:28.476Z,101301.19
2023-01-12T16:23:58.045Z,101300.34
2023-01-12T16:26:26.467Z,101308.91
2023-01-12T16:28:54.807Z,101290.13
2023-01-12T16:31:22.808Z,101313.16
2023-01-12T16:33:50.794Z,101314.09
2023-01-12T16:36:18.710Z,101312.34
2023-01-12T16:38:46.643Z,101314.88
2023-01-12T16:41:19.985Z,101287.78
2023-01-12T16:43:48.087Z,101318.50
2023-01-12T16:46:16.998Z,101320.25
2023-01-12T16:48:45.358Z,101318.56
2023-01-12T16:51:14.233Z,101315.97
2023-01-12T16:53:42.745Z,101319.59
2023-01-12T16:56:12.480Z,101320.38
2023-01-12T16:58:47.832Z,101321.22
2023-01-12T17:01:17.847Z,101327.22
2023-01-12T17:03:46.065Z,101329.09
2023-01-12T17:06:15.989Z,101327.44
2023-01-12T17:08:44.078Z,101323.28
2023-01-12T17:11:14.012Z,101333.38
2023-01-12T17:13:44.245Z,101336.81
2023-01-12T17:16:13.427Z,101340.25
2023-01-12T17:18:41.933Z,101339.44
2023-01-12T17:21:12.852Z,101337.06
2023-01-12T17:23:41.323Z,101342.19
2023-01-12T17:26:13.407Z,101339.78
2023-01-12T17:28:41.828Z,101340.47
2023-01-12T17:31:14.581Z,101338.59
2023-01-12T17:33:42.936Z,101339.38
2023-01-12T17:36:12.987Z,101340.13
2023-01-12T17:38:41.271Z,101333.38
2023-01-12T17:41:30.120Z,101334.31
2023-01-12T17:43:57.122Z,101333.56
2023-01-12T17:46:26.491Z,101323.19
2023-01-12T17:48:54.570Z,101330.72
2023-01-12T17:51:22.635Z,101344.38
2023-01-12T17:53:50.608Z,101341.66
2023-01-12T17:56:18.587Z,101342.53
2023-01-12T17:58:46.559Z,101343.41
2023-01-12T18:01:15.170Z,101344.31
2023-01-12T18:03:44.596Z,101343.41
2023-01-12T18:06:18.625Z,101345.19
2023-01-12T18:08:56.351Z,101340.91
2023-01-12T18:11:25.324Z,101344.25
2023-01-12T18:13:53.827Z,101345.88
2023-01-12T18:16:22.808Z,101352.94
2023-01-12T18:18:53.118Z,101346.97
2023-01-12T18:21:24.683Z,101345.13
2023-01-12T18:23:53.386Z,101343.31
2023-01-12T18:26:25.251Z,101343.38
2023-01-12T18:28:53.379Z,101337.41
2023-01-12T18:31:23.607Z,101341.50
2023-01-12T18:33:56.893Z,101348.38
2023-01-12T18:36:26.536Z,101336.63
2023-01-12T18:38:55.407Z,101340.72
2023-01-12T18:41:41.834Z,101348.31
2023-01-12T18:44:10.691Z,101344.88
2023-01-12T18:46:59.576Z,101342.31
2023-01-12T18:49:30.883Z,101334.75
2023-01-12T18:52:16.840Z,101341.50
2023-01-12T18:54:47.537Z,101343.13
2023-01-12T18:57:17.156Z,101351.69
2023-01-12T18:59:45.278Z,101344.03
2023-01-12T19:02:13.815Z,101357.00
2023-01-12T19:05:05.719Z,101350.09
2023-01-12T19:07:44.031Z,101358.69
2023-01-12T19:10:11.094Z,101358.63
2023-01-12T19:12:39.100Z,101367.19
2023-01-12T19:15:25.526Z,101362.03
2023-01-12T19:17:53.462Z,101360.41
2023-01-12T19:20:27.432Z,101364.88
2023-01-12T19:23:12.922Z,101362.47
2023-01-12T19:26:09.937Z,101365.06
2023-01-12T19:28:38.359Z,101359.09
2023-01-12T19:31:09.798Z,101357.34
2023-01-12T19:33:38.865Z,101354.88
2023-01-12T19:36:10.489Z,101355.81
2023-01-12T19:38:39.659Z,101366.81
2023-01-12T19:41:12.741Z,101370.25
2023-01-12T19:43:45.452Z,101368.56
2023-01-12T19:46:14.063Z,101362.94
2023-01-12T19:48:42.089Z,101367.09
2023-01-12T19:51:11.860Z,101365.34
2023-01-12T19:53:40.588Z,101354.19
2023-01-12T19:56:10.703Z,101366.94
2023-01-12T19:58:38.815Z,101366.91
2023-01-12T20:01:06.849Z,101361.09
2023-01-12T20:03:35.938Z,101364.41
2023-01-12T20:06:06.474Z,101369.53
2023-01-12T20:08:35.803Z,101370.41
2023-01-12T20:11:05.492Z,101345.75
2023-01-12T20:13:34.529Z,101368.66
2023-01-12T20:16:07.098Z,101375.50
2023-01-12T20:18:35.122Z,101378.09
2023-01-12T20:21:03.458Z,101367.91
2023-01-12T20:23:31.408Z,101368.78
2023-01-12T20:26:00.728Z,101372.97
2023-01-12T20:28:28.740Z,101373.06
2023-01-12T20:30:58.645Z,101362.06
2023-01-12T20:33:28.444Z,101380.69
2023-01-12T20:35:57.162Z,101374.78
2023-01-12T20:38:25.310Z,101374.81
2023-01-12T20:40:53.346Z,101378.19
2023-01-12T20:43:22.684Z,101381.69
2023-01-12T20:45:52.482Z,101377.38
2023-01-12T20:48:20.465Z,101378.19
2023-01-12T20:50:48.674Z,101379.06
2023-01-12T20:53:16.959Z,101380.78
2023-01-12T20:55:46.465Z,101382.53
2023-01-12T20:58:15.105Z,101379.19
2023-01-12T21:00:44.633Z,101383.47
2023-01-12T21:03:12.687Z,101380.81
2023-01-12T21:05:42.639Z,101387.53
2023-01-12T21:08:11.342Z,101394.19
2023-01-12T21:10:40.627Z,101386.50
2023-01-12T21:13:08.833Z,101386.63
2023-01-12T21:15:36.770Z,101376.22
2023-01-12T21:18:06.171Z,101382.16
2023-01-12T21:20:34.433Z,101381.28
2023-01-12T21:23:02.475Z,101378.72
2023-01-12T21:25:30.421Z,101386.44
2023-01-12T21:27:58.410Z,101378.63
2023-01-12T21:30:26.351Z,101385.41
2023-01-12T21:32:55.125Z,101385.72
2023-01-12T21:35:25.410Z,101382.22
2023-01-12T21:37:53.402Z,101383.00
2023-01-12T21:40:21.608Z,101380.63
2023-01-12T21:43:08.971Z,101360.16
2023-01-12T21:45:37.134Z,101368.94
2023-01-12T21:48:06.039Z,101373.75
2023-01-12T21:50:35.928Z,101369.38
2023-01-12T21:53:04.502Z,101375.31
2023-01-12T21:55:33.325Z,101376.13
2023-01-12T21:58:01.969Z,101367.63
2023-01-12T22:00:31.216Z,101377.16
2023-01-12T22:02:59.517Z,101374.47
2023-01-12T22:05:27.928Z,101372.63
2023-01-12T22:07:57.886Z,101364.91
2023-01-12T22:10:30.569Z,101372.03
2023-01-12T22:13:02.880Z,101371.88
2023-01-12T22:15:31.447Z,101373.50
2023-01-12T22:18:00.224Z,101370.22
2023-01-12T22:20:28.917Z,101365.06
2023-01-12T22:22:58.264Z,101360.81
2023-01-12T22:25:27.251Z,101359.19
2023-01-12T22:27:55.537Z,101354.88
2023-01-12T22:30:25.240Z,101354.94
2023-01-12T22:32:55.566Z,101352.34
2023-01-12T22:35:26.433Z,101341.19
2023-01-12T22:37:54.783Z,101338.72
2023-01-12T22:40:24.209Z,101338.66
2023-01-12T22:43:09.451Z,101340.38
2023-01-12T22:45:37.780Z,101341.28
2023-01-12T22:48:06.652Z,101342.16
2023-01-12T22:50:34.598Z,101340.50
2023-01-12T22:53:02.575Z,101336.28
2023-01-12T22:55:32.023Z,101346.31
2023-01-12T22:58:00.404Z,101347.06
2023-01-12T23:00:28.356Z,101339.38
2023-01-12T23:03:02.767Z,101343.56
2023-01-12T23:05:35.812Z,101345.31
2023-01-12T23:08:05.568Z,101338.53
2023-01-12T23:10:35.087Z,101342.69
2023-01-12T23:13:19.118Z,101337.53
2023-01-12T23:15:49.368Z,101341.75
2023-01-12T23:18:19.203Z,101333.13
2023-01-12T23:20:47.740Z,101331.41
2023-01-12T23:23:18.091Z,101335.66
2023-01-12T23:25:48.367Z,101334.91
2023-01-12T23:28:17.057Z,101317.81
2023-01-12T23:30:45.460Z,101333.94
2023-01-12T23:33:13.384Z,101321.13
2023-01-12T23:35:42.678Z,101326.28
2023-01-12T23:38:15.880Z,101327.94
2023-01-12T23:40:43.848Z,101322.78
2023-01-12T23:43:13.187Z,101328.84
2023-01-12T23:45:41.203Z,101325.38
2023-01-12T23:48:09.296Z,101323.63
2023-01-12T23:50:37.334Z,101320.28
2023-01-12T23:53:05.526Z,101315.19
2023-01-12T23:55:33.462Z,101324.53
2023-01-12T23:58:02.298Z,101338.94
